sensor_id;sensor_type;location;lat;lon;timestamp;P1;P2;P0
76049;PMS7003;64967;50.234;19.224;2024-03-23T00:55:07;49.50;38.25;25.75
76049;PMS7003;64967;50.234;19.224;2024-03-23T00:57:33;45.50;34.75;23.00
76049;PMS7003;64967;50.234;19.224;2024-03-23T00:59:58;38.50;32.50;23.00
76049;PMS7003;64967;50.234;19.224;2024-03-23T01:02:24;28.50;23.00;12.00
76049;PMS7003;64967;50.234;19.224;2024-03-23T01:04:49;34.25;29.00;20.50
76049;PMS7003;64967;50.234;19.224;2024-03-23T01:07:15;42.50;34.75;23.00
76049;PMS7003;64967;50.234;19.224;2024-03-23T01:09:41;72.67;53.00;32.33
76049;PMS7003;64967;50.234;19.224;2024-03-23T01:12:06;70.33;53.00;34.00
76049;PMS7003;64967;50.234;19.224;2024-03-23T01:14:32;72.00;52.67;32.33
76049;PMS7003;64967;50.234;19.224;2024-03-23T01:16:58;69.00;46.00;27.75
76049;PMS7003;64967;50.234;19.224;2024-03-23T01:19:23;65.50;48.75;29.25
76049;PMS7003;64967;50.234;19.224;2024-03-23T01:21:49;62.25;48.75;32.00
76049;PMS7003;64967;50.234;19.224;2024-03-23T01:24:14;61.25;47.00;29.25
76049;PMS7003;64967;50.234;19.224;2024-03-23T01:26:40;65.50;47.00;28.25
76049;PMS7003;64967;50.234;19.224;2024-03-23T01:29:06;49.25;40.25;26.50
76049;PMS7003;64967;50.234;19.224;2024-03-23T01:31:32;61.00;45.75;30.00
76049;PMS7003;64967;50.234;19.224;2024-03-23T01:33:58;57.25;43.25;28.25
76049;PMS7003;64967;50.234;19.224;2024-03-23T01:36:23;53.25;41.50;28.00
76049;PMS7003;64967;50.234;19.224;2024-03-23T01:38:49;55.00;44.00;26.50
76049;PMS7003;64967;50.234;19.224;2024-03-23T01:41:17;53.50;41.00;26.00
76049;PMS7003;64967;50.234;19.224;2024-03-23T01:43:43;54.75;42.50;27.50
76049;PMS7003;64967;50.234;19.224;2024-03-23T01:46:08;44.75;38.75;26.25
76049;PMS7003;64967;50.234;19.224;2024-03-23T01:48:34;52.25;40.50;27.50
76049;PMS7003;64967;50.234;19.224;2024-03-23T01:51:00;50.75;41.00;27.25
76049;PMS7003;64967;50.234;19.224;2024-03-23T01:53:26;46.50;37.00;25.00
76049;PMS7003;64967;50.234;19.224;2024-03-23T01:55:51;35.25;33.50;22.25
76049;PMS7003;64967;50.234;19.224;2024-03-23T01:58:17;50.75;38.50;27.00
76049;PMS7003;64967;50.234;19.224;2024-03-23T02:00:43;47.50;37.75;25.00
76049;PMS7003;64967;50.234;19.224;2024-03-23T02:03:27;45.75;37.00;23.50
76049;PMS7003;64967;50.234;19.224;2024-03-23T02:05:53;50.00;41.00;27.50
76049;PMS7003;64967;50.234;19.224;2024-03-23T02:08:20;35.00;32.00;21.00
76049;PMS7003;64967;50.234;19.224;2024-03-23T02:10:50;31.50;26.00;17.00
76049;PMS7003;64967;50.234;19.224;2024-03-23T02:13:18;27.00;23.50;18.50
76049;PMS7003;64967;50.234;19.224;2024-03-23T02:15:44;12.50;9.75;5.00
76049;PMS7003;64967;50.234;19.224;2024-03-23T02:18:10;23.00;21.00;15.00
76049;PMS7003;64967;50.234;19.224;2024-03-23T02:20:36;14.50;12.00;9.00
76049;PMS7003;64967;50.234;19.224;2024-03-23T02:23:02;10.75;10.25;8.00
76049;PMS7003;64967;50.234;19.224;2024-03-23T02:25:31;37.00;30.50;21.75
76049;PMS7003;64967;50.234;19.224;2024-03-23T02:28:00;43.00;35.00;22.25
76049;PMS7003;64967;50.234;19.224;2024-03-23T02:30:26;45.50;35.50;23.25
76049;PMS7003;64967;50.234;19.224;2024-03-23T02:32:51;30.75;28.00;20.25
76049;PMS7003;64967;50.234;19.224;2024-03-23T02:35:17;30.50;25.00;18.25
76049;PMS7003;64967;50.234;19.224;2024-03-23T02:37:43;18.25;16.75;10.00
76049;PMS7003;64967;50.234;19.224;2024-03-23T02:40:08;22.25;18.75;13.00
76049;PMS7003;64967;50.234;19.224;2024-03-23T02:42:34;14.75;12.25;9.00
76049;PMS7003;64967;50.234;19.224;2024-03-23T02:44:59;18.25;13.75;9.50
76049;PMS7003;64967;50.234;19.224;2024-03-23T02:47:25;16.50;14.50;12.50
76049;PMS7003;64967;50.234;19.224;2024-03-23T02:49:51;19.75;17.25;10.50
76049;PMS7003;64967;50.234;19.224;2024-03-23T02:52:16;16.25;14.75;10.50
76049;PMS7003;64967;50.234;19.224;2024-03-23T02:54:42;16.75;13.25;9.50
76049;PMS7003;64967;50.234;19.224;2024-03-23T02:57:10;27.50;27.00;20.00
76049;PMS7003;64967;50.234;19.224;2024-03-23T02:59:36;30.00;29.50;22.25
76049;PMS7003;64967;50.234;19.224;2024-03-23T03:02:01;28.00;26.25;16.50
76049;PMS7003;64967;50.234;19.224;2024-03-23T03:04:29;26.25;24.50;17.25
76049;PMS7003;64967;50.234;19.224;2024-03-23T03:06:55;29.75;27.00;19.00
76049;PMS7003;64967;50.234;19.224;2024-03-23T03:09:21;17.50;15.75;9.75
76049;PMS7003;64967;50.234;19.224;2024-03-23T03:11:47;20.75;16.75;13.25
76049;PMS7003;64967;50.234;19.224;2024-03-23T03:14:13;18.50;16.25;11.75
76049;PMS7003;64967;50.234;19.224;2024-03-23T03:16:38;12.00;11.00;9.25
76049;PMS7003;64967;50.234;19.224;2024-03-23T03:19:04;23.00;20.25;12.50
76049;PMS7003;64967;50.234;19.224;2024-03-23T03:21:29;23.75;19.00;16.00
76049;PMS7003;64967;50.234;19.224;2024-03-23T03:23:55;15.00;12.50;11.00
76049;PMS7003;64967;50.234;19.224;2024-03-23T03:26:22;17.75;15.00;10.00
76049;PMS7003;64967;50.234;19.224;2024-03-23T03:28:48;18.50;15.25;11.25
76049;PMS7003;64967;50.234;19.224;2024-03-23T03:31:20;20.00;17.75;13.00
76049;PMS7003;64967;50.234;19.224;2024-03-23T03:33:46;17.25;15.75;11.25
76049;PMS7003;64967;50.234;19.224;2024-03-23T03:36:12;15.75;13.75;9.50
76049;PMS7003;64967;50.234;19.224;2024-03-23T03:38:37;20.75;17.75;14.75
76049;PMS7003;64967;50.234;19.224;2024-03-23T03:41:05;20.75;18.75;15.00
76049;PMS7003;64967;50.234;19.224;2024-03-23T03:43:31;35.00;32.75;21.00
76049;PMS7003;64967;50.234;19.224;2024-03-23T03:45:58;43.25;36.75;25.00
76049;PMS7003;64967;50.234;19.224;2024-03-23T03:48:24;51.00;38.50;26.00
76049;PMS7003;64967;50.234;19.224;2024-03-23T03:50:50;34.25;28.75;21.25
76049;PMS7003;64967;50.234;19.224;2024-03-23T03:53:15;34.00;28.75;21.25
76049;PMS7003;64967;50.234;19.224;2024-03-23T03:55:41;24.25;22.50;15.50
76049;PMS7003;64967;50.234;19.224;2024-03-23T03:58:07;19.75;18.00;13.00
76049;PMS7003;64967;50.234;19.224;2024-03-23T04:00:33;22.00;19.00;14.00
76049;PMS7003;64967;50.234;19.224;2024-03-23T04:02:58;25.00;23.50;16.00
76049;PMS7003;64967;50.234;19.224;2024-03-23T04:05:24;43.25;37.50;25.50
76049;PMS7003;64967;50.234;19.224;2024-03-23T04:07:50;53.50;38.25;25.00
76049;PMS7003;64967;50.234;19.224;2024-03-23T04:10:15;44.25;35.25;24.00
76049;PMS7003;64967;50.234;19.224;2024-03-23T04:12:41;41.50;33.00;22.50
76049;PMS7003;64967;50.234;19.224;2024-03-23T04:15:08;42.75;36.25;24.75
76049;PMS7003;64967;50.234;19.224;2024-03-23T04:17:34;31.00;28.00;21.00
76049;PMS7003;64967;50.234;19.224;2024-03-23T04:20:00;49.00;38.50;25.00
76049;PMS7003;64967;50.234;19.224;2024-03-23T04:22:27;39.25;32.00;22.00
76049;PMS7003;64967;50.234;19.224;2024-03-23T04:24:53;33.75;28.75;20.50
76049;PMS7003;64967;50.234;19.224;2024-03-23T04:27:19;41.75;32.75;23.00
76049;PMS7003;64967;50.234;19.224;2024-03-23T04:29:48;55.25;44.75;29.50
76049;PMS7003;64967;50.234;19.224;2024-03-23T04:32:14;51.25;41.50;26.75
76049;PMS7003;64967;50.234;19.224;2024-03-23T04:34:40;40.75;34.75;23.25
76049;PMS7003;64967;50.234;19.224;2024-03-23T04:37:06;32.25;28.00;20.50
76049;PMS7003;64967;50.234;19.224;2024-03-23T04:39:31;24.75;22.75;15.75
76049;PMS7003;64967;50.234;19.224;2024-03-23T04:41:57;32.50;29.00;20.75
76049;PMS7003;64967;50.234;19.224;2024-03-23T04:44:22;26.50;22.00;16.00
76049;PMS7003;64967;50.234;19.224;2024-03-23T04:46:48;25.75;22.25;15.00
76049;PMS7003;64967;50.234;19.224;2024-03-23T04:49:13;33.75;27.25;18.25
76049;PMS7003;64967;50.234;19.224;2024-03-23T04:51:39;22.25;18.75;13.00
76049;PMS7003;64967;50.234;19.224;2024-03-23T04:54:07;27.00;24.00;16.50
76049;PMS7003;64967;50.234;19.224;2024-03-23T04:56:32;26.75;22.50;16.00
76049;PMS7003;64967;50.234;19.224;2024-03-23T04:58:58;38.25;33.50;22.75
76049;PMS7003;64967;50.234;19.224;2024-03-23T05:01:27;53.75;39.25;27.00
76049;PMS7003;64967;50.234;19.224;2024-03-23T05:03:53;42.00;37.50;26.00
76049;PMS7003;64967;50.234;19.224;2024-03-23T05:06:18;49.75;41.25;27.00
76049;PMS7003;64967;50.234;19.224;2024-03-23T05:08:44;44.25;35.25;25.75
76049;PMS7003;64967;50.234;19.224;2024-03-23T05:11:11;47.25;38.00;26.00
76049;PMS7003;64967;50.234;19.224;2024-03-23T05:13:37;55.25;44.75;28.00
76049;PMS7003;64967;50.234;19.224;2024-03-23T05:16:02;46.25;39.00;26.50
76049;PMS7003;64967;50.234;19.224;2024-03-23T05:18:28;46.00;39.25;27.25
76049;PMS7003;64967;50.234;19.224;2024-03-23T05:20:57;38.25;34.50;22.50
76049;PMS7003;64967;50.234;19.224;2024-03-23T05:23:24;43.00;38.00;24.75
76049;PMS7003;64967;50.234;19.224;2024-03-23T05:25:50;40.00;34.25;24.25
76049;PMS7003;64967;50.234;19.224;2024-03-23T05:28:17;36.50;31.25;21.50
76049;PMS7003;64967;50.234;19.224;2024-03-23T05:30:43;24.50;22.00;15.00
76049;PMS7003;64967;50.234;19.224;2024-03-23T05:33:09;22.25;20.50;15.00
76049;PMS7003;64967;50.234;19.224;2024-03-23T05:35:34;23.00;18.50;12.75
76049;PMS7003;64967;50.234;19.224;2024-03-23T05:38:00;26.25;24.25;17.00
76049;PMS7003;64967;50.234;19.224;2024-03-23T05:40:26;21.75;20.50;13.25
76049;PMS7003;64967;50.234;19.224;2024-03-23T05:42:52;23.50;19.50;13.00
76049;PMS7003;64967;50.234;19.224;2024-03-23T05:45:18;29.75;28.25;19.50
76049;PMS7003;64967;50.234;19.224;2024-03-23T05:47:44;30.00;26.25;19.00
76049;PMS7003;64967;50.234;19.224;2024-03-23T05:50:10;21.25;17.25;13.75
76049;PMS7003;64967;50.234;19.224;2024-03-23T05:52:38;29.50;24.00;16.50
76049;PMS7003;64967;50.234;19.224;2024-03-23T05:55:04;34.25;27.25;17.50
76049;PMS7003;64967;50.234;19.224;2024-03-23T05:57:30;26.25;20.50;13.25
76049;PMS7003;64967;50.234;19.224;2024-03-23T05:59:56;18.75;16.25;12.00
76049;PMS7003;64967;50.234;19.224;2024-03-23T06:02:22;15.75;14.75;12.00
76049;PMS7003;64967;50.234;19.224;2024-03-23T06:04:49;19.00;15.50;11.25
76049;PMS7003;64967;50.234;19.224;2024-03-23T06:07:14;12.50;11.25;8.50
76049;PMS7003;64967;50.234;19.224;2024-03-23T06:09:40;12.75;10.25;9.50
76049;PMS7003;64967;50.234;19.224;2024-03-23T06:12:09;9.25;9.00;8.00
76049;PMS7003;64967;50.234;19.224;2024-03-23T06:14:34;8.75;7.25;7.00
76049;PMS7003;64967;50.234;19.224;2024-03-23T06:17:00;12.00;9.00;8.00
76049;PMS7003;64967;50.234;19.224;2024-03-23T06:19:27;15.25;14.00;11.25
76049;PMS7003;64967;50.234;19.224;2024-03-23T06:21:53;15.75;12.75;9.25
76049;PMS7003;64967;50.234;19.224;2024-03-23T06:24:21;8.25;7.50;5.50
76049;PMS7003;64967;50.234;19.224;2024-03-23T06:26:47;7.75;7.00;5.00
76049;PMS7003;64967;50.234;19.224;2024-03-23T06:29:13;7.00;7.00;5.25
76049;PMS7003;64967;50.234;19.224;2024-03-23T06:31:38;7.75;7.00;5.50
76049;PMS7003;64967;50.234;19.224;2024-03-23T06:34:04;5.50;5.50;4.00
76049;PMS7003;64967;50.234;19.224;2024-03-23T06:36:30;3.00;3.00;2.00
76049;PMS7003;64967;50.234;19.224;2024-03-23T06:38:56;7.75;7.75;5.00
76049;PMS7003;64967;50.234;19.224;2024-03-23T06:41:22;7.75;7.75;6.00
76049;PMS7003;64967;50.234;19.224;2024-03-23T06:43:48;10.25;8.25;6.00
76049;PMS7003;64967;50.234;19.224;2024-03-23T06:46:13;9.25;5.00;3.50
76049;PMS7003;64967;50.234;19.224;2024-03-23T06:48:39;7.25;5.00;4.25
76049;PMS7003;64967;50.234;19.224;2024-03-23T06:51:05;7.50;6.00;4.25
76049;PMS7003;64967;50.234;19.224;2024-03-23T06:53:31;12.50;9.00;7.00
76049;PMS7003;64967;50.234;19.224;2024-03-23T06:55:57;9.75;9.75;8.00
76049;PMS7003;64967;50.234;19.224;2024-03-23T06:58:24;13.25;11.00;8.25
76049;PMS7003;64967;50.234;19.224;2024-03-23T07:00:50;8.00;7.50;3.50
76049;PMS7003;64967;50.234;19.224;2024-03-23T07:03:16;11.25;9.50;6.75
76049;PMS7003;64967;50.234;19.224;2024-03-23T07:05:42;9.50;9.50;7.75
76049;PMS7003;64967;50.234;19.224;2024-03-23T07:08:08;16.00;12.25;9.00
76049;PMS7003;64967;50.234;19.224;2024-03-23T07:10:33;13.75;10.25;8.00
76049;PMS7003;64967;50.234;19.224;2024-03-23T07:13:00;8.25;7.50;6.00
76049;PMS7003;64967;50.234;19.224;2024-03-23T07:15:26;11.25;10.00;7.00
76049;PMS7003;64967;50.234;19.224;2024-03-23T07:17:52;13.50;9.50;7.25
76049;PMS7003;64967;50.234;19.224;2024-03-23T07:20:17;11.00;10.00;7.00
76049;PMS7003;64967;50.234;19.224;2024-03-23T07:22:45;8.75;6.00;4.00
76049;PMS7003;64967;50.234;19.224;2024-03-23T07:25:11;16.00;14.50;10.50
76049;PMS7003;64967;50.234;19.224;2024-03-23T07:27:36;12.75;8.25;4.50
76049;PMS7003;64967;50.234;19.224;2024-03-23T07:30:02;9.00;5.75;2.00
76049;PMS7003;64967;50.234;19.224;2024-03-23T07:32:27;12.25;10.50;8.25
76049;PMS7003;64967;50.234;19.224;2024-03-23T07:34:53;11.00;9.75;7.50
76049;PMS7003;64967;50.234;19.224;2024-03-23T07:37:19;16.50;12.50;9.50
76049;PMS7003;64967;50.234;19.224;2024-03-23T07:39:44;14.50;14.00;11.00
76049;PMS7003;64967;50.234;19.224;2024-03-23T07:42:10;17.50;14.00;9.25
76049;PMS7003;64967;50.234;19.224;2024-03-23T07:44:35;11.00;10.00;7.75
76049;PMS7003;64967;50.234;19.224;2024-03-23T07:47:01;12.50;10.25;8.00
76049;PMS7003;64967;50.234;19.224;2024-03-23T07:49:27;11.50;11.00;8.00
76049;PMS7003;64967;50.234;19.224;2024-03-23T07:51:53;11.25;10.50;9.00
76049;PMS7003;64967;50.234;19.224;2024-03-23T07:54:18;15.75;12.25;8.75
76049;PMS7003;64967;50.234;19.224;2024-03-23T07:56:44;12.50;11.00;6.75
76049;PMS7003;64967;50.234;19.224;2024-03-23T07:59:10;14.00;14.00;12.00
76049;PMS7003;64967;50.234;19.224;2024-03-23T08:01:36;18.25;16.00;11.00
76049;PMS7003;64967;50.234;19.224;2024-03-23T08:04:02;14.50;13.25;11.00
76049;PMS7003;64967;50.234;19.224;2024-03-23T08:06:27;13.75;12.25;10.00
76049;PMS7003;64967;50.234;19.224;2024-03-23T08:08:56;19.00;16.00;12.50
76049;PMS7003;64967;50.234;19.224;2024-03-23T08:11:25;15.75;15.50;12.75
76049;PMS7003;64967;50.234;19.224;2024-03-23T08:13:56;18.00;16.00;12.75
76049;PMS7003;64967;50.234;19.224;2024-03-23T08:16:22;14.50;12.00;8.25
76049;PMS7003;64967;50.234;19.224;2024-03-23T08:18:48;24.75;21.00;13.00
76049;PMS7003;64967;50.234;19.224;2024-03-23T08:21:16;17.50;15.75;12.25
76049;PMS7003;64967;50.234;19.224;2024-03-23T08:23:42;24.75;19.25;12.75
76049;PMS7003;64967;50.234;19.224;2024-03-23T08:26:08;19.50;17.25;13.50
76049;PMS7003;64967;50.234;19.224;2024-03-23T08:28:35;21.25;20.00;15.00
76049;PMS7003;64967;50.234;19.224;2024-03-23T08:31:05;23.25;19.25;16.00
76049;PMS7003;64967;50.234;19.224;2024-03-23T08:33:32;23.50;21.75;15.75
76049;PMS7003;64967;50.234;19.224;2024-03-23T08:35:58;20.50;19.25;15.00
76049;PMS7003;64967;50.234;19.224;2024-03-23T08:38:26;18.75;16.75;12.50
76049;PMS7003;64967;50.234;19.224;2024-03-23T08:41:26;21.25;19.75;14.25
76049;PMS7003;64967;50.234;19.224;2024-03-23T08:43:44;23.00;18.50;13.00
76049;PMS7003;64967;50.234;19.224;2024-03-23T08:46:13;22.00;20.75;15.50
76049;PMS7003;64967;50.234;19.224;2024-03-23T08:51:12;26.50;23.00;17.25
76049;PMS7003;64967;50.234;19.224;2024-03-23T08:53:39;19.00;19.00;14.00
76049;PMS7003;64967;50.234;19.224;2024-03-23T08:56:05;17.75;16.00;11.00
76049;PMS7003;64967;50.234;19.224;2024-03-23T08:58:32;23.00;18.25;11.75
76049;PMS7003;64967;50.234;19.224;2024-03-23T09:01:03;16.25;15.00;11.25
76049;PMS7003;64967;50.234;19.224;2024-03-23T09:03:30;13.25;10.75;8.00
76049;PMS7003;64967;50.234;19.224;2024-03-23T09:05:56;21.75;21.00;14.25
76049;PMS7003;64967;50.234;19.224;2024-03-23T09:08:23;22.50;21.00;14.50
76049;PMS7003;64967;50.234;19.224;2024-03-23T09:10:49;25.25;22.25;15.50
76049;PMS7003;64967;50.234;19.224;2024-03-23T09:13:14;21.75;18.75;12.00
76049;PMS7003;64967;50.234;19.224;2024-03-23T09:15:48;16.75;14.75;11.50
76049;PMS7003;64967;50.234;19.224;2024-03-23T09:18:15;16.75;16.75;12.00
76049;PMS7003;64967;50.234;19.224;2024-03-23T09:20:41;20.50;17.50;12.00
76049;PMS7003;64967;50.234;19.224;2024-03-23T09:23:07;17.50;16.75;11.75
76049;PMS7003;64967;50.234;19.224;2024-03-23T09:25:36;12.75;12.00;8.75
76049;PMS7003;64967;50.234;19.224;2024-03-23T09:28:03;18.50;16.00;11.75
76049;PMS7003;64967;50.234;19.224;2024-03-23T09:30:28;14.75;14.25;11.50
76049;PMS7003;64967;50.234;19.224;2024-03-23T09:32:54;17.00;12.25;9.50
76049;PMS7003;64967;50.234;19.224;2024-03-23T09:35:20;14.00;13.00;10.25
76049;PMS7003;64967;50.234;19.224;2024-03-23T09:37:45;13.50;12.00;7.75
76049;PMS7003;64967;50.234;19.224;2024-03-23T09:40:11;10.25;10.00;8.75
76049;PMS7003;64967;50.234;19.224;2024-03-23T09:42:37;15.00;12.25;10.00
76049;PMS7003;64967;50.234;19.224;2024-03-23T09:45:06;11.00;10.00;7.67
76049;PMS7003;64967;50.234;19.224;2024-03-23T09:47:42;11.67;10.00;8.00
76049;PMS7003;64967;50.234;19.224;2024-03-23T09:50:08;9.67;9.00;7.00
76049;PMS7003;64967;50.234;19.224;2024-03-23T09:52:34;10.00;8.00;6.00
76049;PMS7003;64967;50.234;19.224;2024-03-23T09:55:00;6.33;6.33;6.00
76049;PMS7003;64967;50.234;19.224;2024-03-23T09:57:26;8.67;6.00;4.67
76049;PMS7003;64967;50.234;19.224;2024-03-23T09:59:51;5.00;5.00;4.00
76049;PMS7003;64967;50.234;19.224;2024-03-23T10:02:17;10.67;8.00;5.00
76049;PMS7003;64967;50.234;19.224;2024-03-23T10:04:45;8.00;7.67;6.67
76049;PMS7003;64967;50.234;19.224;2024-03-23T10:07:11;6.33;5.67;5.00
76049;PMS7003;64967;50.234;19.224;2024-03-23T10:09:38;8.33;7.67;6.00
76049;PMS7003;64967;50.234;19.224;2024-03-23T10:12:10;8.00;5.67;4.33
76049;PMS7003;64967;50.234;19.224;2024-03-23T10:14:37;6.00;6.00;5.67
76049;PMS7003;64967;50.234;19.224;2024-03-23T10:17:13;8.33;6.00;5.00
76049;PMS7003;64967;50.234;19.224;2024-03-23T10:19:45;6.00;6.00;5.00
76049;PMS7003;64967;50.234;19.224;2024-03-23T10:22:13;6.33;6.00;5.00
76049;PMS7003;64967;50.234;19.224;2024-03-23T10:24:41;7.00;7.00;6.00
76049;PMS7003;64967;50.234;19.224;2024-03-23T10:27:07;7.00;6.00;5.00
76049;PMS7003;64967;50.234;19.224;2024-03-23T10:29:33;7.00;7.00;5.00
76049;PMS7003;64967;50.234;19.224;2024-03-23T10:32:08;9.00;8.00;6.00
76049;PMS7003;64967;50.234;19.224;2024-03-23T10:34:35;8.67;7.00;6.00
76049;PMS7003;64967;50.234;19.224;2024-03-23T10:37:02;7.67;6.67;5.33
76049;PMS7003;64967;50.234;19.224;2024-03-23T10:39:30;7.67;6.00;5.00
76049;PMS7003;64967;50.234;19.224;2024-03-23T10:41:58;6.67;6.67;5.00
76049;PMS7003;64967;50.234;19.224;2024-03-23T10:44:26;6.33;6.33;5.33
76049;PMS7003;64967;50.234;19.224;2024-03-23T10:46:55;5.67;5.67;4.67
76049;PMS7003;64967;50.234;19.224;2024-03-23T10:49:34;8.67;8.00;7.00
76049;PMS7003;64967;50.234;19.224;2024-03-23T10:52:03;7.00;7.00;6.00
76049;PMS7003;64967;50.234;19.224;2024-03-23T10:54:30;8.33;8.00;7.00
76049;PMS7003;64967;50.234;19.224;2024-03-23T10:57:14;6.33;6.00;5.00
76049;PMS7003;64967;50.234;19.224;2024-03-23T10:59:42;8.00;8.00;7.00
76049;PMS7003;64967;50.234;19.224;2024-03-23T11:02:20;8.00;8.00;6.33
76049;PMS7003;64967;50.234;19.224;2024-03-23T11:04:46;9.67;9.00;5.67
76049;PMS7003;64967;50.234;19.224;2024-03-23T11:09:49;9.67;8.00;6.00
76049;PMS7003;64967;50.234;19.224;2024-03-23T11:14:48;7.67;7.00;6.33
76049;PMS7003;64967;50.234;19.224;2024-03-23T11:17:18;7.00;6.00;5.00
76049;PMS7003;64967;50.234;19.224;2024-03-23T11:19:46;6.00;5.33;4.00
76049;PMS7003;64967;50.234;19.224;2024-03-23T11:22:39;7.00;7.00;6.00
76049;PMS7003;64967;50.234;19.224;2024-03-23T11:25:22;7.33;5.33;5.00
76049;PMS7003;64967;50.234;19.224;2024-03-23T11:27:55;5.00;5.00;4.00
76049;PMS7003;64967;50.234;19.224;2024-03-23T11:30:25;6.00;5.33;5.00
76049;PMS7003;64967;50.234;19.224;2024-03-23T11:32:52;5.67;5.00;5.00
76049;PMS7003;64967;50.234;19.224;2024-03-23T11:38:03;8.00;6.00;4.67
76049;PMS7003;64967;50.234;19.224;2024-03-23T11:43:09;5.67;5.33;4.67
76049;PMS7003;64967;50.234;19.224;2024-03-23T11:45:46;5.00;5.00;4.00
76049;PMS7003;64967;50.234;19.224;2024-03-23T11:48:14;8.00;6.00;5.00
76049;PMS7003;64967;50.234;19.224;2024-03-23T11:50:50;6.00;4.67;3.67
76049;PMS7003;64967;50.234;19.224;2024-03-23T11:53:20;5.67;5.00;4.00
76049;PMS7003;64967;50.234;19.224;2024-03-23T11:55:47;6.00;5.00;5.00
76049;PMS7003;64967;50.234;19.224;2024-03-23T11:58:16;5.00;4.33;4.00
76049;PMS7003;64967;50.234;19.224;2024-03-23T12:00:48;6.00;6.00;6.00
76049;PMS7003;64967;50.234;19.224;2024-03-23T12:03:18;5.00;5.00;4.00
76049;PMS7003;64967;50.234;19.224;2024-03-23T12:05:54;6.67;6.67;5.00
76049;PMS7003;64967;50.234;19.224;2024-03-23T12:08:21;6.33;5.67;5.00
76049;PMS7003;64967;50.234;19.224;2024-03-23T12:10:48;6.00;6.00;5.00
76049;PMS7003;64967;50.234;19.224;2024-03-23T12:13:15;8.00;7.00;5.33
76049;PMS7003;64967;50.234;19.224;2024-03-23T12:15:43;5.00;4.00;4.00
76049;PMS7003;64967;50.234;19.224;2024-03-23T12:18:09;4.00;4.00;3.67
76049;PMS7003;64967;50.234;19.224;2024-03-23T12:20:36;5.00;5.00;4.00
76049;PMS7003;64967;50.234;19.224;2024-03-23T12:23:06;6.00;4.67;4.00
76049;PMS7003;64967;50.234;19.224;2024-03-23T12:25:33;4.00;4.00;3.00
76049;PMS7003;64967;50.234;19.224;2024-03-23T12:28:00;7.67;6.33;5.67
76049;PMS7003;64967;50.234;19.224;2024-03-23T12:30:25;4.00;3.33;2.67
76049;PMS7003;64967;50.234;19.224;2024-03-23T12:32:51;5.00;5.00;5.00
76049;PMS7003;64967;50.234;19.224;2024-03-23T12:35:17;5.00;4.00;4.00
76049;PMS7003;64967;50.234;19.224;2024-03-23T12:37:43;7.00;6.00;5.00
76049;PMS7003;64967;50.234;19.224;2024-03-23T12:40:09;6.00;5.00;4.00
76049;PMS7003;64967;50.234;19.224;2024-03-23T12:42:35;6.00;6.00;5.00
76049;PMS7003;64967;50.234;19.224;2024-03-23T12:45:00;5.33;4.00;4.00
76049;PMS7003;64967;50.234;19.224;2024-03-23T12:47:26;5.00;4.33;3.33
76049;PMS7003;64967;50.234;19.224;2024-03-23T12:49:52;6.67;6.00;4.67
76049;PMS7003;64967;50.234;19.224;2024-03-23T12:52:17;4.33;4.33;4.00
76049;PMS7003;64967;50.234;19.224;2024-03-23T12:54:45;4.00;4.00;3.33
76049;PMS7003;64967;50.234;19.224;2024-03-23T12:57:10;2.00;2.00;2.00
76049;PMS7003;64967;50.234;19.224;2024-03-23T12:59:36;4.00;3.33;3.00
76049;PMS7003;64967;50.234;19.224;2024-03-23T13:02:02;5.00;4.00;3.33
76049;PMS7003;64967;50.234;19.224;2024-03-23T13:04:28;5.67;4.33;3.00
76049;PMS7003;64967;50.234;19.224;2024-03-23T13:06:53;4.00;3.33;3.00
76049;PMS7003;64967;50.234;19.224;2024-03-23T13:09:19;4.00;3.00;2.67
76049;PMS7003;64967;50.234;19.224;2024-03-23T13:11:44;4.00;4.00;3.33
76049;PMS7003;64967;50.234;19.224;2024-03-23T13:14:10;4.00;3.00;3.00
76049;PMS7003;64967;50.234;19.224;2024-03-23T13:16:35;5.00;4.00;3.00
76049;PMS7003;64967;50.234;19.224;2024-03-23T13:19:01;4.67;3.33;3.00
76049;PMS7003;64967;50.234;19.224;2024-03-23T13:21:26;3.67;3.67;3.67
76049;PMS7003;64967;50.234;19.224;2024-03-23T13:23:52;4.00;4.00;3.67
76049;PMS7003;64967;50.234;19.224;2024-03-23T13:26:17;5.00;3.00;3.00
76049;PMS7003;64967;50.234;19.224;2024-03-23T13:28:43;4.00;4.00;4.00
76049;PMS7003;64967;50.234;19.224;2024-03-23T13:31:09;3.00;3.00;2.67
76049;PMS7003;64967;50.234;19.224;2024-03-23T13:33:35;4.00;3.67;2.67
76049;PMS7003;64967;50.234;19.224;2024-03-23T13:36:01;4.67;4.00;3.67
76049;PMS7003;64967;50.234;19.224;2024-03-23T13:38:28;2.00;2.00;2.00
76049;PMS7003;64967;50.234;19.224;2024-03-23T13:40:54;3.67;3.67;3.00
76049;PMS7003;64967;50.234;19.224;2024-03-23T13:43:22;4.00;4.00;3.67
76049;PMS7003;64967;50.234;19.224;2024-03-23T13:45:48;3.67;2.67;2.67
76049;PMS7003;64967;50.234;19.224;2024-03-23T13:48:19;5.00;5.00;4.00
76049;PMS7003;64967;50.234;19.224;2024-03-23T13:50:45;5.33;4.00;2.33
76049;PMS7003;64967;50.234;19.224;2024-03-23T13:53:12;6.00;5.00;4.33
76049;PMS7003;64967;50.234;19.224;2024-03-23T13:55:43;3.67;3.67;3.00
76049;PMS7003;64967;50.234;19.224;2024-03-23T13:58:11;6.67;6.00;5.00
76049;PMS7003;64967;50.234;19.224;2024-03-23T14:00:37;3.67;2.33;1.67
76049;PMS7003;64967;50.234;19.224;2024-03-23T14:03:03;4.00;3.00;2.00
76049;PMS7003;64967;50.234;19.224;2024-03-23T14:05:29;3.00;2.00;2.00
76049;PMS7003;64967;50.234;19.224;2024-03-23T14:07:54;2.33;2.33;2.00
76049;PMS7003;64967;50.234;19.224;2024-03-23T14:10:20;2.00;2.00;2.00
76049;PMS7003;64967;50.234;19.224;2024-03-23T14:12:46;2.00;1.50;1.00
76049;PMS7003;64967;50.234;19.224;2024-03-23T14:15:11;2.00;2.00;1.00
76049;PMS7003;64967;50.234;19.224;2024-03-23T14:17:37;1.75;0.75;0.75
76049;PMS7003;64967;50.234;19.224;2024-03-23T14:20:02;0.50;0.25;0.00
76049;PMS7003;64967;50.234;19.224;2024-03-23T14:22:30;0.75;0.25;0.25
76049;PMS7003;64967;50.234;19.224;2024-03-23T14:24:57;1.50;1.00;1.00
76049;PMS7003;64967;50.234;19.224;2024-03-23T14:27:23;2.00;1.00;1.00
76049;PMS7003;64967;50.234;19.224;2024-03-23T14:29:49;1.50;1.00;0.50
76049;PMS7003;64967;50.234;19.224;2024-03-23T14:32:15;2.00;2.00;1.00
76049;PMS7003;64967;50.234;19.224;2024-03-23T14:34:41;2.00;2.00;1.00
76049;PMS7003;64967;50.234;19.224;2024-03-23T14:37:07;0.00;0.00;0.00
76049;PMS7003;64967;50.234;19.224;2024-03-23T14:39:33;1.00;1.00;1.00
76049;PMS7003;64967;50.234;19.224;2024-03-23T14:42:04;3.00;2.25;2.00
76049;PMS7003;64967;50.234;19.224;2024-03-23T14:44:31;0.25;0.25;0.25
76049;PMS7003;64967;50.234;19.224;2024-03-23T14:46:57;1.25;1.25;1.00
76049;PMS7003;64967;50.234;19.224;2024-03-23T14:49:22;1.00;0.75;0.00
76049;PMS7003;64967;50.234;19.224;2024-03-23T14:51:49;2.00;1.00;1.00
76049;PMS7003;64967;50.234;19.224;2024-03-23T14:54:15;1.00;1.00;1.00
76049;PMS7003;64967;50.234;19.224;2024-03-23T14:56:42;0.25;0.25;0.00